Time;durP1;ratioP1;P1;durP2;ratioP2;P2;SDS_P1;SDS_P2;PMS_P1;PMS_P2;Temp;Humidity;BMP_temperature;BMP_pressure;BME280_temperature;BME280_humidity;BME280_pressure;Samples;Min_cycle;Max_cycle;Signal;HPM_P1;HPM_P2
2022/01/26 00:07:27;;;;;;;15.73;10.57;;;;;;;;;;5073556;28;20507;-76
2022/01/26 00:09:53;;;;;;;16.08;10.93;;;;;;;;;;5073470;28;20044;-76
2022/01/26 00:12:19;;;;;;;14.18;10.48;;;;;;;;;;5072995;28;20077;-76
2022/01/26 00:14:45;;;;;;;15.10;10.50;;;;;;;;;;5073493;28;20039;-76
2022/01/26 00:17:12;;;;;;;14.63;10.23;;;;;;;;;;5073450;28;20023;-76
2022/01/26 00:20:20;;;;;;;15.13;10.80;;;;;;;;;;5071931;28;20024;-76
2022/01/26 00:22:54;;;;;;;15.25;10.25;;;;;;;;;;5071665;28;20020;-76
2022/01/26 00:25:33;;;;;;;14.20;9.98;;;;;;;;;;5073158;28;20081;-76
2022/01/26 00:38:39;;;;;;;15.35;10.38;;;;;;;;;;5053888;28;20032;-76
2022/01/26 00:41:09;;;;;;;15.15;10.60;;;;;;;;;;5050067;28;20029;-76
2022/01/26 00:43:36;;;;;;;12.52;10.07;;;;;;;;;;5030663;28;20022;-76
2022/01/26 00:46:05;;;;;;;13.80;9.60;;;;;;;;;;5033564;28;20029;-76
2022/01/26 00:48:33;;;;;;;14.50;10.25;;;;;;;;;;5033173;28;20033;-76
2022/01/26 00:51:03;;;;;;;16.15;10.70;;;;;;;;;;5032725;28;20038;-76
2022/01/26 00:53:34;;;;;;;15.05;10.18;;;;;;;;;;5043562;28;20025;-76
2022/01/26 00:56:01;;;;;;;14.48;10.07;;;;;;;;;;5052248;28;20037;-76
2022/01/26 00:58:27;;;;;;;11.65;9.55;;;;;;;;;;5052820;28;20041;-76
2022/01/26 01:00:54;;;;;;;15.57;10.57;;;;;;;;;;5069099;28;20475;-76
2022/01/26 01:03:21;;;;;;;14.10;10.05;;;;;;;;;;5076442;28;20024;-76
2022/01/26 01:06:01;;;;;;;12.82;9.93;;;;;;;;;;5076294;28;20486;-76
2022/01/26 01:08:28;;;;;;;13.45;9.25;;;;;;;;;;5074992;28;20025;-76
2022/01/26 01:10:55;;;;;;;11.77;8.93;;;;;;;;;;5076683;28;20099;-76
2022/01/26 01:13:30;;;;;;;13.32;9.48;;;;;;;;;;5075383;28;20503;-76
2022/01/26 01:15:56;;;;;;;12.10;8.82;;;;;;;;;;5076146;28;20151;-76
2022/01/26 01:18:35;;;;;;;11.75;8.80;;;;;;;;;;5074821;28;20503;-76
2022/01/26 01:29:23;;;;;;;11.73;9.27;;;;;;;;;;5076366;28;20025;-76
2022/01/26 01:31:53;;;;;;;11.93;8.32;;;;;;;;;;5075361;28;20052;-76
2022/01/26 01:34:22;;;;;;;11.85;8.57;;;;;;;;;;5076175;28;20492;-76
2022/01/26 01:36:52;;;;;;;11.30;8.30;;;;;;;;;;5072455;28;20021;-76
2022/01/26 01:39:19;;;;;;;12.05;8.23;;;;;;;;;;5056208;28;20484;-76
2022/01/26 01:41:46;;;;;;;11.88;8.63;;;;;;;;;;5047778;28;20025;-76
2022/01/26 01:44:13;;;;;;;11.25;8.32;;;;;;;;;;5034838;28;20492;-75
2022/01/26 01:46:41;;;;;;;11.35;8.40;;;;;;;;;;5036015;28;20033;-76
2022/01/26 01:49:08;;;;;;;10.18;8.10;;;;;;;;;;5034652;28;20079;-76
2022/01/26 01:51:38;;;;;;;9.68;7.60;;;;;;;;;;5035556;28;20029;-76
2022/01/26 01:54:05;;;;;;;10.40;7.90;;;;;;;;;;5051677;28;20063;-76
2022/01/26 01:56:31;;;;;;;11.80;7.88;;;;;;;;;;5055649;28;20075;-77
2022/01/26 01:58:58;;;;;;;10.88;7.63;;;;;;;;;;5055717;28;20091;-77
2022/01/26 02:01:25;;;;;;;11.52;7.88;;;;;;;;;;5054859;28;20040;-77
2022/01/26 02:03:51;;;;;;;10.93;7.50;;;;;;;;;;5057829;28;20451;-77
2022/01/26 02:06:18;;;;;;;11.40;8.10;;;;;;;;;;5074101;28;20121;-77
2022/01/26 02:08:44;;;;;;;8.80;7.28;;;;;;;;;;5074173;28;20035;-77
2022/01/26 02:11:12;;;;;;;9.50;6.90;;;;;;;;;;5075528;28;20047;-77
2022/01/26 02:57:09;;;;;;;8.75;6.72;;;;;;;;;;5034981;28;20030;-75
2022/01/26 03:00:10;;;;;;;8.98;7.07;;;;;;;;;;5033552;28;20517;-75
2022/01/26 03:02:47;;;;;;;8.68;6.55;;;;;;;;;;5033382;28;20036;-75
2022/01/26 03:05:14;;;;;;;8.68;6.57;;;;;;;;;;5034010;28;20030;-75
2022/01/26 03:07:46;;;;;;;10.32;6.60;;;;;;;;;;5034771;28;20405;-75
2022/01/26 03:10:39;;;;;;;8.98;7.07;;;;;;;;;;5053696;28;20037;-75
2022/01/26 03:13:12;;;;;;;8.10;6.55;;;;;;;;;;5054540;28;20036;-75
2022/01/26 03:15:50;;;;;;;7.85;6.53;;;;;;;;;;5053351;28;20083;-75
2022/01/26 03:20:51;;;;;;;9.70;7.05;;;;;;;;;;5054457;28;20288;-75
2022/01/26 03:29:09;;;;;;;8.63;6.60;;;;;;;;;;5034022;28;20036;-75
2022/01/26 03:34:10;;;;;;;8.55;6.45;;;;;;;;;;5034146;28;20426;-75
2022/01/26 03:36:47;;;;;;;7.75;6.45;;;;;;;;;;5032129;28;20083;-76
2022/01/26 03:39:17;;;;;;;9.82;6.78;;;;;;;;;;5033640;28;20455;-76
2022/01/26 03:44:12;;;;;;;8.18;6.22;;;;;;;;;;5053742;28;20025;-76
2022/01/26 03:46:38;;;;;;;9.43;6.72;;;;;;;;;;5051781;28;20029;-76
2022/01/26 03:49:05;;;;;;;8.48;6.63;;;;;;;;;;5052970;28;20025;-76
2022/01/26 03:51:32;;;;;;;7.07;6.25;;;;;;;;;;5053196;28;20396;-76
2022/01/26 03:53:58;;;;;;;7.45;6.15;;;;;;;;;;5036527;28;20476;-76
2022/01/26 03:56:24;;;;;;;9.68;6.97;;;;;;;;;;5032613;28;20029;-76
2022/01/26 03:58:50;;;;;;;9.30;7.13;;;;;;;;;;5033225;28;20056;-76
2022/01/26 04:01:16;;;;;;;9.68;7.45;;;;;;;;;;5031785;28;20480;-76
2022/01/26 04:03:42;;;;;;;10.20;7.30;;;;;;;;;;5032977;28;20408;-76
2022/01/26 04:06:08;;;;;;;10.10;7.72;;;;;;;;;;5032943;28;20167;-76
2022/01/26 04:08:36;;;;;;;11.30;7.97;;;;;;;;;;5032644;28;20037;-76
2022/01/26 04:13:49;;;;;;;12.98;8.60;;;;;;;;;;5054621;28;20039;-76
2022/01/26 04:16:15;;;;;;;11.32;8.48;;;;;;;;;;5073132;28;20566;-76
2022/01/26 04:18:42;;;;;;;12.32;8.68;;;;;;;;;;5072681;28;20025;-76
2022/01/26 04:21:28;;;;;;;11.55;8.20;;;;;;;;;;5073096;28;20001;-76
2022/01/26 04:24:18;;;;;;;9.43;7.63;;;;;;;;;;5033330;28;20401;-76
2022/01/26 04:29:27;;;;;;;12.85;9.27;;;;;;;;;;5033395;28;20038;-76
2022/01/26 04:31:54;;;;;;;12.23;8.68;;;;;;;;;;5031085;28;20037;-76
2022/01/26 04:34:20;;;;;;;12.70;8.90;;;;;;;;;;5032651;28;20436;-76
2022/01/26 04:36:53;;;;;;;11.75;8.73;;;;;;;;;;5035372;28;20455;-76
2022/01/26 04:39:26;;;;;;;11.98;8.80;;;;;;;;;;5037156;28;20029;-76
2022/01/26 04:41:57;;;;;;;13.18;8.77;;;;;;;;;;5043529;28;20120;-76
2022/01/26 04:44:27;;;;;;;15.45;9.20;;;;;;;;;;5056928;28;20021;-76
2022/01/26 04:46:53;;;;;;;13.30;8.93;;;;;;;;;;5074645;28;20033;-76
2022/01/26 04:49:20;;;;;;;13.20;9.32;;;;;;;;;;5076306;28;20020;-76
2022/01/26 04:51:46;;;;;;;12.02;8.80;;;;;;;;;;5074949;28;20067;-76
2022/01/26 04:54:12;;;;;;;12.55;9.10;;;;;;;;;;5057439;28;20120;-76
2022/01/26 04:56:38;;;;;;;11.93;8.23;;;;;;;;;;5055794;28;20424;-76
2022/01/26 04:59:04;;;;;;;11.90;8.65;;;;;;;;;;5056162;28;20048;-76
2022/01/26 05:01:30;;;;;;;12.35;8.50;;;;;;;;;;5054598;28;20036;-76
2022/01/26 05:03:56;;;;;;;11.25;8.40;;;;;;;;;;5055780;28;20033;-76
2022/01/26 05:06:22;;;;;;;11.02;8.45;;;;;;;;;;5056428;28;20049;-76
2022/01/26 05:08:48;;;;;;;11.40;8.57;;;;;;;;;;5056315;28;20040;-76
2022/01/26 05:11:22;;;;;;;11.32;8.50;;;;;;;;;;5056607;28;20489;-76
2022/01/26 05:13:48;;;;;;;;;;;;;;;;;;5056374;28;20059;-76
2022/01/26 05:16:14;;;;;;;11.45;8.35;;;;;;;;;;5056032;28;19905;-76
2022/01/26 05:18:40;;;;;;;11.70;8.18;;;;;;;;;;5069686;28;20028;-76
2022/01/26 05:21:06;;;;;;;11.05;7.90;;;;;;;;;;5076209;28;20025;-76
2022/01/26 05:23:32;;;;;;;9.68;7.47;;;;;;;;;;5058007;28;20033;-76
2022/01/26 05:25:58;;;;;;;11.23;7.68;;;;;;;;;;5056329;28;20388;-76
2022/01/26 05:28:24;;;;;;;9.95;7.95;;;;;;;;;;5054517;28;20029;-76
2022/01/26 05:30:50;;;;;;;10.18;8.05;;;;;;;;;;5055793;28;20110;-77
2022/01/26 05:33:16;;;;;;;9.95;7.45;;;;;;;;;;5056085;28;20391;-76
2022/01/26 05:35:42;;;;;;;9.55;7.47;;;;;;;;;;5055766;28;20021;-77
2022/01/26 05:38:09;;;;;;;11.18;7.40;;;;;;;;;;5055248;28;20041;-77
2022/01/26 05:40:35;;;;;;;10.15;7.47;;;;;;;;;;5056276;28;20028;-77
2022/01/26 05:43:01;;;;;;;10.45;7.28;;;;;;;;;;5037150;28;20036;-77
2022/01/26 05:45:38;;;;;;;8.90;6.97;;;;;;;;;;5035169;28;20037;-77
2022/01/26 05:48:09;;;;;;;11.43;7.50;;;;;;;;;;5033761;28;20056;-77
2022/01/26 05:50:37;;;;;;;12.10;7.95;;;;;;;;;;5059184;28;20525;-77
2022/01/26 05:53:03;;;;;;;11.43;7.45;;;;;;;;;;5066750;28;20021;-78
2022/01/26 05:55:29;;;;;;;9.32;7.35;;;;;;;;;;5055948;28;20021;-77
2022/01/26 05:57:55;;;;;;;11.40;7.03;;;;;;;;;;5055795;28;20565;-77
2022/01/26 06:00:22;;;;;;;13.45;7.18;;;;;;;;;;5056208;28;20078;-77
2022/01/26 06:02:48;;;;;;;9.63;7.00;;;;;;;;;;5056246;28;20025;-77
2022/01/26 06:05:14;;;;;;;9.48;7.10;;;;;;;;;;5055920;28;20025;-77
2022/01/26 06:07:40;;;;;;;8.00;6.38;;;;;;;;;;5056253;28;20112;-77
2022/01/26 06:10:06;;;;;;;11.75;7.20;;;;;;;;;;5056067;28;20035;-77
2022/01/26 06:12:35;;;;;;;7.95;6.63;;;;;;;;;;5054389;28;20032;-77
2022/01/26 06:15:02;;;;;;;10.40;7.18;;;;;;;;;;5055571;28;20028;-77
2022/01/26 06:17:28;;;;;;;8.13;6.50;;;;;;;;;;5055445;28;20547;-78
2022/01/26 06:19:55;;;;;;;8.80;7.00;;;;;;;;;;5055086;28;20108;-75
2022/01/26 06:22:21;;;;;;;9.27;7.13;;;;;;;;;;5055716;28;20258;-76
2022/01/26 06:24:47;;;;;;;10.60;7.28;;;;;;;;;;5055305;28;20527;-75
2022/01/26 06:27:13;;;;;;;8.43;6.43;;;;;;;;;;5053586;28;20021;-75
2022/01/26 06:29:39;;;;;;;7.85;6.88;;;;;;;;;;5054493;28;20021;-76
2022/01/26 06:32:06;;;;;;;7.97;6.05;;;;;;;;;;5054265;28;20021;-76
2022/01/26 06:34:32;;;;;;;10.48;7.18;;;;;;;;;;5054503;28;20033;-76
2022/01/26 06:36:58;;;;;;;8.75;6.63;;;;;;;;;;5054719;28;20024;-76
2022/01/26 06:39:24;;;;;;;9.32;6.80;;;;;;;;;;5053550;28;20100;-75
2022/01/26 06:41:54;;;;;;;9.05;6.40;;;;;;;;;;5045330;28;20029;-75
2022/01/26 06:44:27;;;;;;;8.05;6.75;;;;;;;;;;5033885;28;20436;-76
2022/01/26 06:49:28;;;;;;;8.95;6.47;;;;;;;;;;5034426;28;20042;-76
2022/01/26 06:51:55;;;;;;;9.38;7.07;;;;;;;;;;5033637;28;20021;-76
2022/01/26 06:54:21;;;;;;;9.02;6.93;;;;;;;;;;5059960;28;20427;-76
2022/01/26 06:56:48;;;;;;;9.23;7.25;;;;;;;;;;5073782;28;20074;-75
2022/01/26 06:59:14;;;;;;;9.93;7.07;;;;;;;;;;5073005;28;20131;-76
2022/01/26 07:01:40;;;;;;;9.00;6.82;;;;;;;;;;5073882;28;20078;-76
2022/01/26 07:04:06;;;;;;;9.35;6.78;;;;;;;;;;5074223;28;20404;-76
2022/01/26 07:06:33;;;;;;;10.55;7.30;;;;;;;;;;5073897;28;20078;-76
2022/01/26 07:08:59;;;;;;;10.63;7.00;;;;;;;;;;5073937;28;20020;-76
2022/01/26 07:11:25;;;;;;;8.52;7.15;;;;;;;;;;5072984;28;20031;-76
2022/01/26 07:13:58;;;;;;;8.50;6.50;;;;;;;;;;5074172;28;20426;-76
2022/01/26 07:19:50;;;;;;;10.82;7.60;;;;;;;;;;5074321;28;20031;-76
2022/01/26 07:22:13;;;;;;;;;;;;;;;;;;5066421;28;20684;-76
2022/01/26 07:24:39;;;;;;;9.18;6.93;;;;;;;;;;5053699;28;20003;-76
2022/01/26 07:27:05;;;;;;;8.68;6.75;;;;;;;;;;5064607;28;20024;-76
2022/01/26 07:29:32;;;;;;;9.75;6.95;;;;;;;;;;5073843;28;20032;-76
2022/01/26 07:31:58;;;;;;;10.18;7.80;;;;;;;;;;5072758;28;20025;-76
2022/01/26 07:34:25;;;;;;;9.82;7.05;;;;;;;;;;5073254;28;20025;-76
2022/01/26 07:36:54;;;;;;;10.60;7.40;;;;;;;;;;5073262;28;20062;-76
2022/01/26 07:39:31;;;;;;;9.98;7.20;;;;;;;;;;5054027;28;20407;-76
2022/01/26 07:41:59;;;;;;;11.70;8.15;;;;;;;;;;5042626;28;20101;-76
2022/01/26 07:44:25;;;;;;;11.10;8.02;;;;;;;;;;5045637;28;20052;-76
2022/01/26 07:46:51;;;;;;;13.52;9.25;;;;;;;;;;5049922;28;20099;-78
2022/01/26 07:49:17;;;;;;;14.20;9.10;;;;;;;;;;5050322;28;20032;-77
2022/01/26 07:51:48;;;;;;;11.82;9.05;;;;;;;;;;5050693;28;20392;-77
2022/01/26 07:54:16;;;;;;;17.52;10.63;;;;;;;;;;5038651;28;20091;-77
2022/01/26 07:56:43;;;;;;;15.77;10.10;;;;;;;;;;5041423;28;20027;-76
2022/01/26 07:59:09;;;;;;;17.08;9.85;;;;;;;;;;5046196;28;20038;-76
2022/01/26 08:01:36;;;;;;;14.98;10.20;;;;;;;;;;5046161;28;20025;-76
2022/01/26 08:04:03;;;;;;;15.25;11.13;;;;;;;;;;5034006;28;20029;-78
2022/01/26 08:06:29;;;;;;;14.38;10.13;;;;;;;;;;5041729;28;20052;-78
2022/01/26 08:08:57;;;;;;;15.10;10.60;;;;;;;;;;5030023;28;20029;-76
2022/01/26 08:11:24;;;;;;;14.07;10.82;;;;;;;;;;5042653;28;20056;-76
2022/01/26 08:13:51;;;;;;;21.02;10.77;;;;;;;;;;5041965;28;20475;-76
2022/01/26 08:16:17;;;;;;;21.40;10.77;;;;;;;;;;5045280;28;20473;-76
2022/01/26 08:18:43;;;;;;;15.40;11.15;;;;;;;;;;5034672;28;20029;-73
2022/01/26 08:21:10;;;;;;;15.95;11.32;;;;;;;;;;5049079;28;20059;-73
2022/01/26 08:23:37;;;;;;;20.70;12.02;;;;;;;;;;5042720;28;20131;-75
2022/01/26 08:26:03;;;;;;;20.70;12.38;;;;;;;;;;5043944;28;20546;-78
2022/01/26 08:28:41;;;;;;;25.92;13.90;;;;;;;;;;5036243;28;20026;-76
2022/01/26 08:31:07;;;;;;;21.17;13.23;;;;;;;;;;5042661;28;20071;-77
2022/01/26 08:33:34;;;;;;;24.90;13.50;;;;;;;;;;5041521;28;20060;-77
2022/01/26 08:36:00;;;;;;;26.55;14.43;;;;;;;;;;5044076;28;20667;-77
2022/01/26 08:38:27;;;;;;;28.52;14.45;;;;;;;;;;5035359;28;20052;-77
2022/01/26 08:40:53;;;;;;;23.83;13.82;;;;;;;;;;5045282;28;20025;-77
2022/01/26 08:43:19;;;;;;;18.88;12.52;;;;;;;;;;5037198;28;20028;-77
2022/01/26 08:45:45;;;;;;;19.98;11.90;;;;;;;;;;5039787;28;20048;-77
2022/01/26 08:48:12;;;;;;;20.50;13.02;;;;;;;;;;5041109;28;20163;-77
2022/01/26 08:50:38;;;;;;;21.98;12.70;;;;;;;;;;5041715;28;20021;-77
2022/01/26 08:53:05;;;;;;;18.42;11.13;;;;;;;;;;5037559;28;20055;-76
2022/01/26 08:55:33;;;;;;;26.20;13.85;;;;;;;;;;5040320;28;20036;-78
2022/01/26 08:57:59;;;;;;;21.42;11.80;;;;;;;;;;5036867;28;20049;-77
2022/01/26 09:00:27;;;;;;;19.42;11.85;;;;;;;;;;5042975;28;20132;-76
2022/01/26 09:02:55;;;;;;;20.52;12.25;;;;;;;;;;5041545;28;20025;-77
2022/01/26 09:05:21;;;;;;;18.15;11.25;;;;;;;;;;5043829;28;20021;-75
2022/01/26 09:07:49;;;;;;;19.58;11.65;;;;;;;;;;5042658;28;20029;-78
2022/01/26 09:10:17;;;;;;;18.35;11.35;;;;;;;;;;5040084;28;20041;-77
2022/01/26 09:12:44;;;;;;;18.27;10.82;;;;;;;;;;5043586;28;20112;-75
2022/01/26 09:15:15;;;;;;;21.27;11.95;;;;;;;;;;5041194;28;20068;-77
2022/01/26 09:17:42;;;;;;;18.83;10.88;;;;;;;;;;5036298;28;20622;-77
2022/01/26 09:20:09;;;;;;;17.25;11.13;;;;;;;;;;5037473;28;20034;-79
2022/01/26 09:22:35;;;;;;;13.40;9.85;;;;;;;;;;5046970;28;20021;-79
2022/01/26 09:25:02;;;;;;;16.27;9.35;;;;;;;;;;5037813;28;20087;-79
2022/01/26 09:27:28;;;;;;;17.92;10.20;;;;;;;;;;5039406;28;20116;-77
2022/01/26 09:29:54;;;;;;;15.73;10.20;;;;;;;;;;5040384;28;20599;-78
2022/01/26 09:32:21;;;;;;;17.85;10.55;;;;;;;;;;5041197;28;20021;-79
2022/01/26 09:34:47;;;;;;;20.02;10.68;;;;;;;;;;5046301;28;20033;-78
2022/01/26 09:37:14;;;;;;;17.50;10.77;;;;;;;;;;5041004;28;20025;-79
2022/01/26 09:39:41;;;;;;;25.40;14.93;;;;;;;;;;5048343;28;20025;-78
2022/01/26 09:42:07;;;;;;;31.27;17.05;;;;;;;;;;5037413;28;20025;-75
2022/01/26 09:44:34;;;;;;;27.77;14.70;;;;;;;;;;5044202;28;20744;-79
2022/01/26 09:47:00;;;;;;;26.15;15.02;;;;;;;;;;5044176;28;20539;-77
2022/01/26 09:49:32;;;;;;;19.35;10.98;;;;;;;;;;5047705;28;20028;-77
2022/01/26 09:52:01;;;;;;;19.77;11.23;;;;;;;;;;5034567;28;20048;-78
2022/01/26 09:54:30;;;;;;;18.23;10.63;;;;;;;;;;5041812;28;20108;-77
2022/01/26 09:57:03;;;;;;;16.45;10.07;;;;;;;;;;5044316;28;20118;-77
2022/01/26 09:59:29;;;;;;;16.02;9.52;;;;;;;;;;5042322;28;20052;-77
2022/01/26 10:01:55;;;;;;;17.25;10.77;;;;;;;;;;5037747;28;20025;-78
2022/01/26 10:04:27;;;;;;;14.32;9.27;;;;;;;;;;5042058;28;20040;-78
2022/01/26 10:07:00;;;;;;;17.27;10.10;;;;;;;;;;5040681;28;20127;-77
2022/01/26 10:17:35;;;;;;;15.30;8.95;;;;;;;;;;5040488;28;20040;-77
2022/01/26 10:20:03;;;;;;;14.85;8.73;;;;;;;;;;5038214;28;20071;-77
2022/01/26 10:22:33;;;;;;;17.10;8.68;;;;;;;;;;5045144;28;20032;-77
2022/01/26 10:25:08;;;;;;;15.15;8.05;;;;;;;;;;5045404;28;20700;-74
2022/01/26 10:27:38;;;;;;;14.63;8.50;;;;;;;;;;5044191;28;20120;-77
2022/01/26 10:30:06;;;;;;;15.48;8.10;;;;;;;;;;5042193;28;20453;-77
2022/01/26 10:32:33;;;;;;;15.90;8.05;;;;;;;;;;5040079;28;20543;-77
2022/01/26 10:35:01;;;;;;;17.95;8.93;;;;;;;;;;5040469;28;20102;-76
2022/01/26 10:37:27;;;;;;;17.35;8.55;;;;;;;;;;5041231;28;20401;-77
2022/01/26 10:39:56;;;;;;;14.23;8.45;;;;;;;;;;5038082;28;20252;-77
2022/01/26 10:42:25;;;;;;;13.25;8.27;;;;;;;;;;5040840;28;20026;-74
2022/01/26 10:47:26;;;;;;;14.60;8.85;;;;;;;;;;5037826;28;20066;-74
2022/01/26 10:50:18;;;;;;;13.18;7.72;;;;;;;;;;5044289;28;20032;-74
2022/01/26 10:52:42;;;;;;;14.63;7.72;;;;;;;;;;5039673;28;20033;-74
2022/01/26 10:55:09;;;;;;;13.88;8.15;;;;;;;;;;5033336;28;20101;-75
2022/01/26 10:57:36;;;;;;;13.18;7.35;;;;;;;;;;5040094;28;20586;-73
2022/01/26 11:00:04;;;;;;;11.57;6.95;;;;;;;;;;5043917;28;20059;-76
2022/01/26 11:02:33;;;;;;;13.93;7.47;;;;;;;;;;5040996;28;20115;-73
2022/01/26 11:05:00;;;;;;;12.48;8.18;;;;;;;;;;5040136;28;20045;-75
2022/01/26 11:07:34;;;;;;;13.30;7.40;;;;;;;;;;5027923;28;20025;-74
2022/01/26 11:10:07;;;;;;;9.30;6.70;;;;;;;;;;5039699;28;20037;-74
2022/01/26 11:12:34;;;;;;;14.43;7.25;;;;;;;;;;5036994;28;20041;-74
2022/01/26 11:15:10;;;;;;;15.63;7.22;;;;;;;;;;5036452;28;20037;-75
2022/01/26 11:17:37;;;;;;;12.68;7.10;;;;;;;;;;5033508;28;20018;-75
2022/01/26 11:20:19;;;;;;;10.77;6.57;;;;;;;;;;5038891;28;20164;-74
2022/01/26 11:22:49;;;;;;;10.90;6.93;;;;;;;;;;5044810;28;20116;-73
2022/01/26 11:25:15;;;;;;;10.18;6.75;;;;;;;;;;5041600;28;20028;-73
2022/01/26 11:27:42;;;;;;;12.68;6.45;;;;;;;;;;5037533;28;20585;-73
2022/01/26 11:30:19;;;;;;;11.32;6.78;;;;;;;;;;5041651;28;20373;-72
2022/01/26 11:33:03;;;;;;;18.40;6.80;;;;;;;;;;5040221;28;20017;-72
2022/01/26 11:35:36;;;;;;;11.65;6.85;;;;;;;;;;5039410;28;20423;-71
2022/01/26 11:38:16;;;;;;;11.27;6.30;;;;;;;;;;5039935;28;20020;-71
2022/01/26 11:46:26;;;;;;;10.05;6.07;;;;;;;;;;5027632;28;20416;-71
2022/01/26 11:49:02;;;;;;;10.48;5.80;;;;;;;;;;5027714;28;20036;-71
2022/01/26 11:51:42;;;;;;;11.20;5.40;;;;;;;;;;5026730;28;20083;-71
2022/01/26 11:54:16;;;;;;;11.32;5.85;;;;;;;;;;5043057;28;20573;-71
2022/01/26 11:56:58;;;;;;;9.15;6.05;;;;;;;;;;5045191;28;20369;-71
2022/01/26 11:59:26;;;;;;;8.77;5.50;;;;;;;;;;5046387;28;20037;-71
2022/01/26 12:02:07;;;;;;;9.82;5.88;;;;;;;;;;5047188;28;20040;-71
2022/01/26 12:04:36;;;;;;;11.68;5.50;;;;;;;;;;5048148;28;20025;-71
2022/01/26 12:07:22;;;;;;;13.27;5.68;;;;;;;;;;5046583;28;20540;-71
2022/01/26 12:09:48;;;;;;;6.38;4.60;;;;;;;;;;5044644;28;20567;-71
2022/01/26 12:12:18;;;;;;;10.35;5.78;;;;;;;;;;5046532;28;20028;-71
2022/01/26 12:14:55;;;;;;;10.23;5.70;;;;;;;;;;5046750;28;20017;-71
2022/01/26 12:17:29;;;;;;;8.93;5.50;;;;;;;;;;5047462;28;20027;-72
2022/01/26 12:37:38;;;;;;;8.63;5.22;;;;;;;;;;5037893;28;20064;-74
2022/01/26 12:42:11;;;;;;;9.30;5.68;;;;;;;;;;5039745;28;20080;-74
2022/01/26 12:44:41;;;;;;;8.98;5.72;;;;;;;;;;5040242;28;20037;-74
2022/01/26 12:47:07;;;;;;;8.38;4.95;;;;;;;;;;5040420;28;20025;-76
2022/01/26 12:49:34;;;;;;;8.32;5.13;;;;;;;;;;5034466;28;20033;-77
2022/01/26 12:52:01;;;;;;;7.60;5.00;;;;;;;;;;5035229;28;20025;-77
2022/01/26 12:54:27;;;;;;;13.88;6.10;;;;;;;;;;5045297;28;20032;-79
2022/01/26 12:57:03;;;;;;;10.70;5.53;;;;;;;;;;5045372;28;20079;-77
2022/01/26 12:59:29;;;;;;;8.90;5.10;;;;;;;;;;5036060;28;20623;-76
2022/01/26 13:01:58;;;;;;;10.70;5.32;;;;;;;;;;5031812;28;20083;-75
2022/01/26 13:04:26;;;;;;;8.35;4.85;;;;;;;;;;5034471;28;20492;-74
2022/01/26 13:06:53;;;;;;;7.78;5.00;;;;;;;;;;5045665;28;20021;-74
2022/01/26 13:09:24;;;;;;;7.80;4.50;;;;;;;;;;5050705;28;20029;-74
2022/01/26 13:11:51;;;;;;;7.90;5.38;;;;;;;;;;5052457;28;20029;-74
2022/01/26 13:14:30;;;;;;;7.70;5.28;;;;;;;;;;5032712;28;20069;-75
2022/01/26 13:17:02;;;;;;;7.55;4.93;;;;;;;;;;5030485;28;20021;-73
2022/01/26 13:22:57;;;;;;;8.38;4.45;;;;;;;;;;5046992;28;20021;-72
2022/01/26 13:30:08;;;;;;;7.07;4.38;;;;;;;;;;5042823;28;20533;-73
2022/01/26 13:37:45;;;;;;;6.80;4.30;;;;;;;;;;5031092;28;20037;-75
2022/01/26 13:40:32;;;;;;;6.57;4.88;;;;;;;;;;5033549;28;20055;-74
2022/01/26 13:43:37;;;;;;;10.77;4.45;;;;;;;;;;5041993;28;20029;-74
2022/01/26 13:46:38;;;;;;;8.95;4.68;;;;;;;;;;5050231;28;20032;-75
2022/01/26 13:59:43;;;;;;;7.63;4.35;;;;;;;;;;5056214;28;20040;-74
2022/01/26 14:02:10;;;;;;;9.93;4.97;;;;;;;;;;5045012;28;20496;-77
2022/01/26 14:04:36;;;;;;;7.95;4.65;;;;;;;;;;5032414;28;20040;-74
2022/01/26 14:07:02;;;;;;;6.25;4.00;;;;;;;;;;5036214;28;20025;-71
2022/01/26 14:09:28;;;;;;;6.32;4.13;;;;;;;;;;5037363;28;20032;-72
2022/01/26 14:11:54;;;;;;;9.85;4.80;;;;;;;;;;5035243;28;20106;-72
2022/01/26 14:14:43;;;;;;;9.48;4.55;;;;;;;;;;5030804;28;20044;-72
2022/01/26 14:17:16;;;;;;;20.35;5.05;;;;;;;;;;5036618;28;20036;-75
2022/01/26 14:27:53;;;;;;;11.63;5.43;;;;;;;;;;5046344;28;20040;-75
2022/01/26 14:33:13;;;;;;;10.45;5.43;;;;;;;;;;5037842;28;20030;-74
2022/01/26 14:54:48;;;;;;;8.45;5.00;;;;;;;;;;5035808;28;20049;-74
2022/01/26 15:40:46;;;;;;;8.27;4.75;;;;;;;;;;5031914;28;20029;-75
2022/01/26 16:05:48;;;;;;;22.15;9.50;;;;;;;;;;5017876;28;20026;-74
2022/01/26 16:08:26;;;;;;;27.30;10.32;;;;;;;;;;5045353;28;20029;-75
2022/01/26 16:35:28;;;;;;;17.33;8.20;;;;;;;;;;5061117;28;20044;-76
2022/01/26 16:38:49;;;;;;;21.98;9.07;;;;;;;;;;5049699;28;20513;-77
2022/01/26 18:06:04;;;;;;;17.60;10.07;;;;;;;;;;5034965;28;20079;-76
2022/01/26 18:13:21;;;;;;;17.55;9.38;;;;;;;;;;5033823;28;20523;-77
2022/01/26 18:51:02;;;;;;;15.80;10.15;;;;;;;;;;5075184;28;20062;-78
2022/01/26 18:53:28;;;;;;;16.23;10.80;;;;;;;;;;5074888;28;20040;-78
2022/01/26 18:55:54;;;;;;;19.83;11.80;;;;;;;;;;5074016;28;20594;-78
2022/01/26 18:58:20;;;;;;;16.38;11.30;;;;;;;;;;5073487;28;20072;-78
2022/01/26 19:00:48;;;;;;;17.42;11.50;;;;;;;;;;5073223;28;20024;-78
2022/01/26 19:03:14;;;;;;;21.02;12.38;;;;;;;;;;5073990;28;20495;-78
2022/01/26 19:05:42;;;;;;;16.98;11.43;;;;;;;;;;5074474;28;20029;-78
2022/01/26 19:08:09;;;;;;;16.88;11.73;;;;;;;;;;5075534;28;20479;-78
2022/01/26 19:10:35;;;;;;;16.05;12.00;;;;;;;;;;5074718;28;20021;-78
2022/01/26 19:13:03;;;;;;;18.55;12.63;;;;;;;;;;5074680;28;20047;-78
2022/01/26 19:15:32;;;;;;;18.45;12.95;;;;;;;;;;5069229;28;20080;-78
2022/01/26 19:18:23;;;;;;;18.40;12.85;;;;;;;;;;5054664;28;20036;-78
2022/01/26 19:24:06;;;;;;;20.60;13.20;;;;;;;;;;5050011;28;20032;-78
2022/01/26 19:26:38;;;;;;;20.23;13.15;;;;;;;;;;5053131;28;20028;-78
2022/01/26 19:29:17;;;;;;;18.50;13.38;;;;;;;;;;5053094;28;20032;-78
2022/01/26 19:32:14;;;;;;;19.40;13.18;;;;;;;;;;5052544;28;20091;-78
2022/01/26 19:40:55;;;;;;;19.42;13.38;;;;;;;;;;5054071;28;20025;-78
2022/01/26 19:51:21;;;;;;;18.05;13.65;;;;;;;;;;5071116;28;20040;-78
2022/01/26 19:53:47;;;;;;;20.55;14.43;;;;;;;;;;5056822;28;20036;-78
2022/01/26 19:56:13;;;;;;;19.73;14.38;;;;;;;;;;5043733;28;20183;-78
2022/01/26 19:58:40;;;;;;;20.75;14.35;;;;;;;;;;5033212;28;20048;-78
2022/01/26 20:01:06;;;;;;;19.77;14.48;;;;;;;;;;5032593;28;20543;-78
2022/01/26 20:03:34;;;;;;;20.77;14.52;;;;;;;;;;5031873;28;20581;-78
2022/01/26 20:06:03;;;;;;;21.90;15.25;;;;;;;;;;5031632;28;20029;-78
2022/01/26 20:11:25;;;;;;;18.73;14.13;;;;;;;;;;5034167;28;20092;-78
2022/01/26 20:13:53;;;;;;;22.17;14.50;;;;;;;;;;5034173;28;20507;-78
2022/01/26 20:16:21;;;;;;;20.23;13.93;;;;;;;;;;5033975;28;20108;-79
2022/01/26 20:18:51;;;;;;;21.20;14.82;;;;;;;;;;5033312;28;20021;-78
2022/01/26 20:21:17;;;;;;;19.70;14.57;;;;;;;;;;5064225;28;20421;-78
2022/01/26 20:23:44;;;;;;;19.08;14.00;;;;;;;;;;5052781;28;20036;-78
2022/01/26 20:26:12;;;;;;;18.70;13.82;;;;;;;;;;5053045;28;20029;-78
2022/01/26 20:28:41;;;;;;;19.27;14.70;;;;;;;;;;5053584;28;20025;-78
2022/01/26 20:31:17;;;;;;;21.30;13.88;;;;;;;;;;5035457;28;20025;-78
2022/01/26 20:33:43;;;;;;;19.85;14.70;;;;;;;;;;5052037;28;20067;-78
2022/01/26 20:36:10;;;;;;;19.73;13.65;;;;;;;;;;5053909;28;20028;-78
2022/01/26 20:38:36;;;;;;;20.52;13.60;;;;;;;;;;5054328;28;20024;-78
2022/01/26 20:41:02;;;;;;;18.52;13.73;;;;;;;;;;5051787;28;20040;-78
2022/01/26 20:43:29;;;;;;;18.33;13.75;;;;;;;;;;5032812;28;20087;-78
2022/01/26 20:45:57;;;;;;;20.60;13.23;;;;;;;;;;5031791;28;20114;-78
2022/01/26 20:48:23;;;;;;;19.15;13.23;;;;;;;;;;5046243;28;20025;-78
2022/01/26 20:50:49;;;;;;;17.58;12.88;;;;;;;;;;5053299;28;20488;-78
2022/01/26 20:53:18;;;;;;;16.42;11.90;;;;;;;;;;5054009;28;20021;-78
2022/01/26 20:55:44;;;;;;;17.17;12.50;;;;;;;;;;5052420;28;20583;-78
2022/01/26 20:58:10;;;;;;;17.25;12.65;;;;;;;;;;5053218;28;20073;-78
2022/01/26 21:00:38;;;;;;;15.60;12.07;;;;;;;;;;5053062;28;20029;-78
2022/01/26 21:03:04;;;;;;;18.95;13.10;;;;;;;;;;5053513;28;20048;-78
2022/01/26 21:05:30;;;;;;;16.70;12.38;;;;;;;;;;5053854;28;20083;-78
2022/01/26 21:07:57;;;;;;;20.63;12.55;;;;;;;;;;5053181;28;20507;-78
2022/01/26 21:10:25;;;;;;;19.17;13.05;;;;;;;;;;5052936;28;20036;-78
2022/01/26 21:12:52;;;;;;;17.85;12.50;;;;;;;;;;5052856;28;20053;-78
2022/01/26 21:15:18;;;;;;;17.98;11.88;;;;;;;;;;5052980;28;20022;-78
2022/01/26 21:17:46;;;;;;;16.02;11.52;;;;;;;;;;5054157;28;20048;-78
2022/01/26 21:20:14;;;;;;;15.57;11.60;;;;;;;;;;5055397;28;20025;-78
2022/01/26 21:22:41;;;;;;;15.93;11.57;;;;;;;;;;5056529;28;20404;-78
2022/01/26 21:25:08;;;;;;;16.52;12.27;;;;;;;;;;5056540;28;20543;-78
2022/01/26 21:27:35;;;;;;;17.33;12.02;;;;;;;;;;5056534;28;20025;-78
2022/01/26 21:30:02;;;;;;;15.65;11.18;;;;;;;;;;5056671;28;20496;-78
2022/01/26 21:32:28;;;;;;;16.42;11.43;;;;;;;;;;5056329;28;20329;-78
2022/01/26 21:34:55;;;;;;;15.55;10.75;;;;;;;;;;5054864;28;20093;-78
2022/01/26 21:37:21;;;;;;;15.68;11.43;;;;;;;;;;5054839;28;20541;-78
2022/01/26 21:39:47;;;;;;;14.68;10.93;;;;;;;;;;5054520;28;20021;-78